sensor_id;sensor_type;location;lat;lon;timestamp;temperature;humidity
44111;DHT22;29774;52.664;5.074;2024-01-15T00:00:14;6.50;77.30
44111;DHT22;29774;52.664;5.074;2024-01-15T00:02:40;6.50;75.80
44111;DHT22;29774;52.664;5.074;2024-01-15T00:05:06;6.50;75.70
44111;DHT22;29774;52.664;5.074;2024-01-15T00:07:31;6.60;76.10
44111;DHT22;29774;52.664;5.074;2024-01-15T00:09:57;6.90;76.60
44111;DHT22;29774;52.664;5.074;2024-01-15T00:12:22;6.80;75.50
44111;DHT22;29774;52.664;5.074;2024-01-15T00:14:48;6.80;74.80
44111;DHT22;29774;52.664;5.074;2024-01-15T00:17:13;6.50;74.40
44111;DHT22;29774;52.664;5.074;2024-01-15T00:19:39;6.70;75.90
44111;DHT22;29774;52.664;5.074;2024-01-15T00:22:04;6.80;76.50
44111;DHT22;29774;52.664;5.074;2024-01-15T00:24:30;7.00;76.50
44111;DHT22;29774;52.664;5.074;2024-01-15T00:26:56;6.90;74.70
44111;DHT22;29774;52.664;5.074;2024-01-15T00:29:21;6.80;74.50
44111;DHT22;29774;52.664;5.074;2024-01-15T00:31:47;6.70;74.00
44111;DHT22;29774;52.664;5.074;2024-01-15T00:34:13;6.60;74.70
44111;DHT22;29774;52.664;5.074;2024-01-15T00:36:38;6.60;75.30
44111;DHT22;29774;52.664;5.074;2024-01-15T00:39:04;6.60;75.20
44111;DHT22;29774;52.664;5.074;2024-01-15T00:41:31;7.00;76.90
44111;DHT22;29774;52.664;5.074;2024-01-15T00:43:56;7.00;75.50
44111;DHT22;29774;52.664;5.074;2024-01-15T00:46:22;6.70;74.00
44111;DHT22;29774;52.664;5.074;2024-01-15T00:48:48;6.60;75.20
44111;DHT22;29774;52.664;5.074;2024-01-15T00:51:14;6.40;73.90
44111;DHT22;29774;52.664;5.074;2024-01-15T00:53:40;6.40;75.00
44111;DHT22;29774;52.664;5.074;2024-01-15T00:56:05;6.50;75.50
44111;DHT22;29774;52.664;5.074;2024-01-15T00:58:31;6.40;75.50
44111;DHT22;29774;52.664;5.074;2024-01-15T01:00:56;6.20;75.10
44111;DHT22;29774;52.664;5.074;2024-01-15T01:03:22;6.30;75.90
44111;DHT22;29774;52.664;5.074;2024-01-15T01:05:51;6.30;75.00
44111;DHT22;29774;52.664;5.074;2024-01-15T01:08:16;6.30;75.60
44111;DHT22;29774;52.664;5.074;2024-01-15T01:10:42;6.70;76.60
44111;DHT22;29774;52.664;5.074;2024-01-15T01:13:08;6.80;76.30
44111;DHT22;29774;52.664;5.074;2024-01-15T01:15:34;7.00;76.20
44111;DHT22;29774;52.664;5.074;2024-01-15T01:17:59;7.10;75.90
44111;DHT22;29774;52.664;5.074;2024-01-15T01:20:25;6.70;73.60
44111;DHT22;29774;52.664;5.074;2024-01-15T01:22:51;6.20;73.40
44111;DHT22;29774;52.664;5.074;2024-01-15T01:25:16;6.20;74.80
44111;DHT22;29774;52.664;5.074;2024-01-15T01:27:42;6.10;74.30
44111;DHT22;29774;52.664;5.074;2024-01-15T01:30:08;6.20;75.50
44111;DHT22;29774;52.664;5.074;2024-01-15T01:32:34;6.50;76.20
44111;DHT22;29774;52.664;5.074;2024-01-15T01:34:59;6.40;75.50
44111;DHT22;29774;52.664;5.074;2024-01-15T01:37:25;6.70;76.70
44111;DHT22;29774;52.664;5.074;2024-01-15T01:39:51;7.10;77.00
44111;DHT22;29774;52.664;5.074;2024-01-15T01:42:16;7.50;75.60
44111;DHT22;29774;52.664;5.074;2024-01-15T01:44:42;7.30;74.00
44111;DHT22;29774;52.664;5.074;2024-01-15T01:47:07;7.20;73.90
44111;DHT22;29774;52.664;5.074;2024-01-15T01:49:34;6.70;72.60
44111;DHT22;29774;52.664;5.074;2024-01-15T01:52:01;6.50;73.20
44111;DHT22;29774;52.664;5.074;2024-01-15T01:54:29;6.20;73.60
44111;DHT22;29774;52.664;5.074;2024-01-15T01:56:57;6.50;75.10
44111;DHT22;29774;52.664;5.074;2024-01-15T01:59:23;6.80;76.10
44111;DHT22;29774;52.664;5.074;2024-01-15T02:01:51;6.80;75.70
44111;DHT22;29774;52.664;5.074;2024-01-15T02:04:17;7.20;76.20
44111;DHT22;29774;52.664;5.074;2024-01-15T02:06:43;7.60;75.50
44111;DHT22;29774;52.664;5.074;2024-01-15T02:09:09;7.40;73.90
44111;DHT22;29774;52.664;5.074;2024-01-15T02:11:36;7.10;73.90
44111;DHT22;29774;52.664;5.074;2024-01-15T02:14:01;6.80;73.30
44111;DHT22;29774;52.664;5.074;2024-01-15T02:16:27;6.50;73.70
44111;DHT22;29774;52.664;5.074;2024-01-15T02:18:53;6.40;74.10
44111;DHT22;29774;52.664;5.074;2024-01-15T02:21:19;6.10;74.00
44111;DHT22;29774;52.664;5.074;2024-01-15T02:23:44;6.40;75.60
44111;DHT22;29774;52.664;5.074;2024-01-15T02:26:10;6.60;76.10
44111;DHT22;29774;52.664;5.074;2024-01-15T02:28:36;6.80;75.90
44111;DHT22;29774;52.664;5.074;2024-01-15T02:31:02;7.00;76.40
44111;DHT22;29774;52.664;5.074;2024-01-15T02:33:27;6.90;75.40
44111;DHT22;29774;52.664;5.074;2024-01-15T02:35:53;6.90;75.20
44111;DHT22;29774;52.664;5.074;2024-01-15T02:38:18;6.70;74.80
44111;DHT22;29774;52.664;5.074;2024-01-15T02:40:45;7.30;76.80
44111;DHT22;29774;52.664;5.074;2024-01-15T02:43:10;7.20;74.70
44111;DHT22;29774;52.664;5.074;2024-01-15T02:45:36;7.10;74.20
44111;DHT22;29774;52.664;5.074;2024-01-15T02:48:02;7.10;74.30
44111;DHT22;29774;52.664;5.074;2024-01-15T02:50:28;7.20;74.90
44111;DHT22;29774;52.664;5.074;2024-01-15T02:52:53;7.10;74.10
44111;DHT22;29774;52.664;5.074;2024-01-15T02:55:19;6.70;73.60
44111;DHT22;29774;52.664;5.074;2024-01-15T02:57:45;6.40;73.00
44111;DHT22;29774;52.664;5.074;2024-01-15T03:00:11;6.20;72.90
44111;DHT22;29774;52.664;5.074;2024-01-15T03:02:40;5.80;73.30
44111;DHT22;29774;52.664;5.074;2024-01-15T03:05:06;5.80;74.00
44111;DHT22;29774;52.664;5.074;2024-01-15T03:07:33;6.00;74.40
44111;DHT22;29774;52.664;5.074;2024-01-15T03:09:59;6.30;76.30
44111;DHT22;29774;52.664;5.074;2024-01-15T03:12:24;6.40;74.80
44111;DHT22;29774;52.664;5.074;2024-01-15T03:14:50;6.00;73.80
44111;DHT22;29774;52.664;5.074;2024-01-15T03:17:16;5.40;73.90
44111;DHT22;29774;52.664;5.074;2024-01-15T03:19:41;5.30;74.60
44111;DHT22;29774;52.664;5.074;2024-01-15T03:22:07;5.40;75.80
44111;DHT22;29774;52.664;5.074;2024-01-15T03:24:34;6.00;77.20
44111;DHT22;29774;52.664;5.074;2024-01-15T03:27:00;6.00;76.40
44111;DHT22;29774;52.664;5.074;2024-01-15T03:29:26;6.00;75.50
44111;DHT22;29774;52.664;5.074;2024-01-15T03:31:52;6.00;76.10
44111;DHT22;29774;52.664;5.074;2024-01-15T03:34:18;6.00;75.90
44111;DHT22;29774;52.664;5.074;2024-01-15T03:36:43;6.10;76.10
44111;DHT22;29774;52.664;5.074;2024-01-15T03:39:09;5.70;75.10
44111;DHT22;29774;52.664;5.074;2024-01-15T03:41:35;5.70;75.80
44111;DHT22;29774;52.664;5.074;2024-01-15T03:44:00;5.50;75.40
44111;DHT22;29774;52.664;5.074;2024-01-15T03:46:27;5.70;76.30
44111;DHT22;29774;52.664;5.074;2024-01-15T03:48:52;5.40;75.40
44111;DHT22;29774;52.664;5.074;2024-01-15T03:51:18;5.30;76.00
44111;DHT22;29774;52.664;5.074;2024-01-15T03:53:44;5.30;76.10
44111;DHT22;29774;52.664;5.074;2024-01-15T03:56:10;5.10;75.80
44111;DHT22;29774;52.664;5.074;2024-01-15T03:58:35;5.00;76.10
44111;DHT22;29774;52.664;5.074;2024-01-15T04:01:01;4.90;76.10
44111;DHT22;29774;52.664;5.074;2024-01-15T04:03:26;4.70;76.30
44111;DHT22;29774;52.664;5.074;2024-01-15T04:05:52;4.70;76.60
44111;DHT22;29774;52.664;5.074;2024-01-15T04:08:17;4.60;76.70
44111;DHT22;29774;52.664;5.074;2024-01-15T04:10:43;4.40;77.00
44111;DHT22;29774;52.664;5.074;2024-01-15T04:13:09;4.50;77.40
44111;DHT22;29774;52.664;5.074;2024-01-15T04:15:34;5.30;79.50
44111;DHT22;29774;52.664;5.074;2024-01-15T04:18:02;6.70;81.10
44111;DHT22;29774;52.664;5.074;2024-01-15T04:20:27;7.20;78.40
44111;DHT22;29774;52.664;5.074;2024-01-15T04:22:53;7.60;76.60
44111;DHT22;29774;52.664;5.074;2024-01-15T04:25:19;7.90;74.70
44111;DHT22;29774;52.664;5.074;2024-01-15T04:27:44;7.80;73.10
44111;DHT22;29774;52.664;5.074;2024-01-15T04:30:10;7.30;72.00
44111;DHT22;29774;52.664;5.074;2024-01-15T04:32:36;6.70;71.40
44111;DHT22;29774;52.664;5.074;2024-01-15T04:35:02;6.40;72.40
44111;DHT22;29774;52.664;5.074;2024-01-15T04:37:27;6.10;72.50
44111;DHT22;29774;52.664;5.074;2024-01-15T04:39:53;5.70;73.00
44111;DHT22;29774;52.664;5.074;2024-01-15T04:42:21;5.40;73.70
44111;DHT22;29774;52.664;5.074;2024-01-15T04:44:46;5.20;74.30
44111;DHT22;29774;52.664;5.074;2024-01-15T04:47:12;5.10;74.90
44111;DHT22;29774;52.664;5.074;2024-01-15T04:49:38;5.20;75.50
44111;DHT22;29774;52.664;5.074;2024-01-15T04:52:03;5.30;75.70
44111;DHT22;29774;52.664;5.074;2024-01-15T04:54:29;5.20;75.60
44111;DHT22;29774;52.664;5.074;2024-01-15T04:56:54;5.20;75.90
44111;DHT22;29774;52.664;5.074;2024-01-15T04:59:20;4.90;75.90
44111;DHT22;29774;52.664;5.074;2024-01-15T05:01:46;5.00;76.60
44111;DHT22;29774;52.664;5.074;2024-01-15T05:04:12;5.70;78.60
44111;DHT22;29774;52.664;5.074;2024-01-15T05:06:38;6.60;79.90
44111;DHT22;29774;52.664;5.074;2024-01-15T05:09:03;7.00;77.60
44111;DHT22;29774;52.664;5.074;2024-01-15T05:11:29;7.20;76.50
44111;DHT22;29774;52.664;5.074;2024-01-15T05:13:55;7.60;75.40
44111;DHT22;29774;52.664;5.074;2024-01-15T05:16:21;8.20;73.60
44111;DHT22;29774;52.664;5.074;2024-01-15T05:18:46;8.10;72.10
44111;DHT22;29774;52.664;5.074;2024-01-15T05:21:12;7.50;70.80
44111;DHT22;29774;52.664;5.074;2024-01-15T05:23:38;7.20;71.20
44111;DHT22;29774;52.664;5.074;2024-01-15T05:26:03;7.10;72.20
44111;DHT22;29774;52.664;5.074;2024-01-15T05:28:29;7.10;72.90
44111;DHT22;29774;52.664;5.074;2024-01-15T05:30:55;6.80;72.10
44111;DHT22;29774;52.664;5.074;2024-01-15T05:33:24;6.30;71.10
44111;DHT22;29774;52.664;5.074;2024-01-15T05:35:49;5.80;71.80
44111;DHT22;29774;52.664;5.074;2024-01-15T05:38:16;5.30;72.20
44111;DHT22;29774;52.664;5.074;2024-01-15T05:40:42;4.90;73.20
44111;DHT22;29774;52.664;5.074;2024-01-15T05:43:07;4.60;74.10
44111;DHT22;29774;52.664;5.074;2024-01-15T05:45:34;4.40;74.80
44111;DHT22;29774;52.664;5.074;2024-01-15T05:48:00;4.20;75.30
44111;DHT22;29774;52.664;5.074;2024-01-15T05:50:25;4.10;75.80
44111;DHT22;29774;52.664;5.074;2024-01-15T05:52:51;3.90;76.60
44111;DHT22;29774;52.664;5.074;2024-01-15T05:55:17;3.90;77.20
44111;DHT22;29774;52.664;5.074;2024-01-15T05:57:44;4.00;77.60
44111;DHT22;29774;52.664;5.074;2024-01-15T06:00:10;3.90;77.70
44111;DHT22;29774;52.664;5.074;2024-01-15T06:02:37;3.80;78.00
44111;DHT22;29774;52.664;5.074;2024-01-15T06:05:04;3.70;78.10
44111;DHT22;29774;52.664;5.074;2024-01-15T06:07:29;3.50;78.40
44111;DHT22;29774;52.664;5.074;2024-01-15T06:09:55;3.50;78.80
44111;DHT22;29774;52.664;5.074;2024-01-15T06:12:22;3.70;79.10
44111;DHT22;29774;52.664;5.074;2024-01-15T06:14:48;5.30;82.50
44111;DHT22;29774;52.664;5.074;2024-01-15T06:17:14;5.70;81.00
44111;DHT22;29774;52.664;5.074;2024-01-15T06:19:39;6.50;80.30
44111;DHT22;29774;52.664;5.074;2024-01-15T06:22:05;6.60;77.70
44111;DHT22;29774;52.664;5.074;2024-01-15T06:24:30;6.30;76.40
44111;DHT22;29774;52.664;5.074;2024-01-15T06:26:56;6.10;75.30
44111;DHT22;29774;52.664;5.074;2024-01-15T06:29:22;5.30;74.60
44111;DHT22;29774;52.664;5.074;2024-01-15T06:31:49;4.90;75.30
44111;DHT22;29774;52.664;5.074;2024-01-15T06:34:15;4.50;75.70
44111;DHT22;29774;52.664;5.074;2024-01-15T06:36:41;4.70;76.70
44111;DHT22;29774;52.664;5.074;2024-01-15T06:39:06;5.20;77.60
44111;DHT22;29774;52.664;5.074;2024-01-15T06:41:32;4.80;76.00
44111;DHT22;29774;52.664;5.074;2024-01-15T06:43:57;4.30;76.00
44111;DHT22;29774;52.664;5.074;2024-01-15T06:46:23;3.90;76.50
44111;DHT22;29774;52.664;5.074;2024-01-15T06:48:49;3.90;77.30
44111;DHT22;29774;52.664;5.074;2024-01-15T06:51:15;4.40;78.10
44111;DHT22;29774;52.664;5.074;2024-01-15T06:53:41;5.30;80.20
44111;DHT22;29774;52.664;5.074;2024-01-15T06:56:06;6.60;81.30
44111;DHT22;29774;52.664;5.074;2024-01-15T06:58:32;7.20;77.90
44111;DHT22;29774;52.664;5.074;2024-01-15T07:00:58;6.70;74.80
44111;DHT22;29774;52.664;5.074;2024-01-15T07:03:23;6.60;74.90
44111;DHT22;29774;52.664;5.074;2024-01-15T07:05:49;6.30;73.90
44111;DHT22;29774;52.664;5.074;2024-01-15T07:08:15;5.80;73.40
44111;DHT22;29774;52.664;5.074;2024-01-15T07:10:40;6.00;74.80
44111;DHT22;29774;52.664;5.074;2024-01-15T07:13:06;5.70;74.30
44111;DHT22;29774;52.664;5.074;2024-01-15T07:15:32;5.70;74.80
44111;DHT22;29774;52.664;5.074;2024-01-15T07:17:57;5.40;74.50
44111;DHT22;29774;52.664;5.074;2024-01-15T07:20:23;5.40;75.10
44111;DHT22;29774;52.664;5.074;2024-01-15T07:22:48;5.30;74.60
44111;DHT22;29774;52.664;5.074;2024-01-15T07:25:15;5.40;75.40
44111;DHT22;29774;52.664;5.074;2024-01-15T07:27:41;5.80;76.60
44111;DHT22;29774;52.664;5.074;2024-01-15T07:30:12;5.60;75.40
44111;DHT22;29774;52.664;5.074;2024-01-15T07:32:38;5.80;76.40
44111;DHT22;29774;52.664;5.074;2024-01-15T07:35:04;6.20;76.40
44111;DHT22;29774;52.664;5.074;2024-01-15T07:37:30;5.80;74.30
44111;DHT22;29774;52.664;5.074;2024-01-15T07:39:56;5.30;74.20
44111;DHT22;29774;52.664;5.074;2024-01-15T07:42:21;5.70;76.50
44111;DHT22;29774;52.664;5.074;2024-01-15T07:44:47;6.00;77.00
44111;DHT22;29774;52.664;5.074;2024-01-15T07:47:13;5.80;74.70
44111;DHT22;29774;52.664;5.074;2024-01-15T07:49:38;6.00;76.10
44111;DHT22;29774;52.664;5.074;2024-01-15T07:52:04;6.00;75.30
44111;DHT22;29774;52.664;5.074;2024-01-15T07:54:31;5.70;74.70
44111;DHT22;29774;52.664;5.074;2024-01-15T07:56:59;5.30;73.90
44111;DHT22;29774;52.664;5.074;2024-01-15T07:59:25;5.40;74.80
44111;DHT22;29774;52.664;5.074;2024-01-15T08:01:52;5.20;74.30
44111;DHT22;29774;52.664;5.074;2024-01-15T08:04:18;5.80;77.40
44111;DHT22;29774;52.664;5.074;2024-01-15T08:06:44;6.00;76.80
44111;DHT22;29774;52.664;5.074;2024-01-15T08:09:10;5.80;74.70
44111;DHT22;29774;52.664;5.074;2024-01-15T08:11:38;5.80;75.30
44111;DHT22;29774;52.664;5.074;2024-01-15T08:14:04;5.60;74.60
44111;DHT22;29774;52.664;5.074;2024-01-15T08:16:29;5.60;75.00
44111;DHT22;29774;52.664;5.074;2024-01-15T08:18:55;5.70;75.10
44111;DHT22;29774;52.664;5.074;2024-01-15T08:21:21;6.00;77.20
44111;DHT22;29774;52.664;5.074;2024-01-15T08:23:47;6.20;76.00
44111;DHT22;29774;52.664;5.074;2024-01-15T08:26:13;6.00;75.00
44111;DHT22;29774;52.664;5.074;2024-01-15T08:28:38;5.70;74.00
44111;DHT22;29774;52.664;5.074;2024-01-15T08:31:04;5.30;74.10
44111;DHT22;29774;52.664;5.074;2024-01-15T08:33:30;5.60;75.50
44111;DHT22;29774;52.664;5.074;2024-01-15T08:35:55;5.40;74.70
44111;DHT22;29774;52.664;5.074;2024-01-15T08:38:21;5.40;75.00
44111;DHT22;29774;52.664;5.074;2024-01-15T08:40:47;5.10;74.80
44111;DHT22;29774;52.664;5.074;2024-01-15T08:43:13;5.20;75.10
44111;DHT22;29774;52.664;5.074;2024-01-15T08:45:38;5.10;75.60
44111;DHT22;29774;52.664;5.074;2024-01-15T08:48:04;4.90;75.10
44111;DHT22;29774;52.664;5.074;2024-01-15T08:50:32;4.90;75.90
44111;DHT22;29774;52.664;5.074;2024-01-15T08:52:58;5.40;77.30
44111;DHT22;29774;52.664;5.074;2024-01-15T08:55:24;6.10;79.00
44111;DHT22;29774;52.664;5.074;2024-01-15T08:57:50;6.60;77.70
44111;DHT22;29774;52.664;5.074;2024-01-15T09:00:16;7.00;76.50
44111;DHT22;29774;52.664;5.074;2024-01-15T09:02:43;7.10;74.40
44111;DHT22;29774;52.664;5.074;2024-01-15T09:05:09;7.30;74.10
44111;DHT22;29774;52.664;5.074;2024-01-15T09:07:34;7.30;73.50
44111;DHT22;29774;52.664;5.074;2024-01-15T09:10:00;7.30;73.60
44111;DHT22;29774;52.664;5.074;2024-01-15T09:12:27;7.40;73.20
44111;DHT22;29774;52.664;5.074;2024-01-15T09:14:53;7.50;73.00
44111;DHT22;29774;52.664;5.074;2024-01-15T09:17:19;7.40;71.80
44111;DHT22;29774;52.664;5.074;2024-01-15T09:19:45;7.50;72.70
44111;DHT22;29774;52.664;5.074;2024-01-15T09:22:12;7.70;72.50
44111;DHT22;29774;52.664;5.074;2024-01-15T09:24:40;7.80;71.80
44111;DHT22;29774;52.664;5.074;2024-01-15T09:27:06;8.00;71.60
44111;DHT22;29774;52.664;5.074;2024-01-15T09:29:31;8.00;71.60
44111;DHT22;29774;52.664;5.074;2024-01-15T09:31:57;8.20;71.60
44111;DHT22;29774;52.664;5.074;2024-01-15T09:34:23;8.20;70.90
44111;DHT22;29774;52.664;5.074;2024-01-15T09:36:48;8.20;70.50
44111;DHT22;29774;52.664;5.074;2024-01-15T09:39:14;8.20;70.50
44111;DHT22;29774;52.664;5.074;2024-01-15T09:41:41;8.20;70.50
44111;DHT22;29774;52.664;5.074;2024-01-15T09:44:07;8.20;70.20
44111;DHT22;29774;52.664;5.074;2024-01-15T09:46:34;8.20;69.90
44111;DHT22;29774;52.664;5.074;2024-01-15T09:49:00;7.80;69.10
44111;DHT22;29774;52.664;5.074;2024-01-15T09:51:31;7.80;71.30
44111;DHT22;29774;52.664;5.074;2024-01-15T09:53:57;7.70;71.20
44111;DHT22;29774;52.664;5.074;2024-01-15T09:56:23;7.70;70.80
44111;DHT22;29774;52.664;5.074;2024-01-15T09:58:50;7.90;71.50
44111;DHT22;29774;52.664;5.074;2024-01-15T10:01:20;8.20;71.30
44111;DHT22;29774;52.664;5.074;2024-01-15T10:03:46;8.40;70.70
44111;DHT22;29774;52.664;5.074;2024-01-15T10:06:15;8.40;70.10
44111;DHT22;29774;52.664;5.074;2024-01-15T10:08:51;8.20;69.90
44111;DHT22;29774;52.664;5.074;2024-01-15T10:11:17;7.90;69.80
44111;DHT22;29774;52.664;5.074;2024-01-15T10:13:49;7.70;70.50
44111;DHT22;29774;52.664;5.074;2024-01-15T10:16:21;7.40;70.30
44111;DHT22;29774;52.664;5.074;2024-01-15T10:18:48;7.20;71.00
44111;DHT22;29774;52.664;5.074;2024-01-15T10:21:13;7.40;72.60
44111;DHT22;29774;52.664;5.074;2024-01-15T10:23:39;7.50;71.80
44111;DHT22;29774;52.664;5.074;2024-01-15T10:26:05;7.50;72.30
44111;DHT22;29774;52.664;5.074;2024-01-15T10:28:31;7.40;72.00
44111;DHT22;29774;52.664;5.074;2024-01-15T10:30:58;7.50;72.50
44111;DHT22;29774;52.664;5.074;2024-01-15T10:33:27;7.50;71.90
44111;DHT22;29774;52.664;5.074;2024-01-15T10:35:57;7.20;72.10
44111;DHT22;29774;52.664;5.074;2024-01-15T10:38:23;7.30;72.50
44111;DHT22;29774;52.664;5.074;2024-01-15T10:40:53;7.30;72.30
44111;DHT22;29774;52.664;5.074;2024-01-15T10:43:19;7.20;72.10
44111;DHT22;29774;52.664;5.074;2024-01-15T10:45:46;7.20;72.40
44111;DHT22;29774;52.664;5.074;2024-01-15T10:48:12;7.10;72.40
44111;DHT22;29774;52.664;5.074;2024-01-15T10:50:38;7.20;73.00
44111;DHT22;29774;52.664;5.074;2024-01-15T10:53:04;7.20;72.90
44111;DHT22;29774;52.664;5.074;2024-01-15T10:55:33;7.20;73.10
44111;DHT22;29774;52.664;5.074;2024-01-15T10:58:01;7.20;72.70
44111;DHT22;29774;52.664;5.074;2024-01-15T11:00:27;7.30;72.20
44111;DHT22;29774;52.664;5.074;2024-01-15T11:02:53;7.30;72.20
44111;DHT22;29774;52.664;5.074;2024-01-15T11:05:22;7.60;72.70
44111;DHT22;29774;52.664;5.074;2024-01-15T11:07:49;7.90;72.10
44111;DHT22;29774;52.664;5.074;2024-01-15T11:13:09;7.80;70.70
44111;DHT22;29774;52.664;5.074;2024-01-15T11:15:55;7.90;71.20
44111;DHT22;29774;52.664;5.074;2024-01-15T11:18:21;7.60;71.10
44111;DHT22;29774;52.664;5.074;2024-01-15T11:23:52;7.40;71.60
44111;DHT22;29774;52.664;5.074;2024-01-15T11:29:06;7.70;72.10
44111;DHT22;29774;52.664;5.074;2024-01-15T11:34:04;7.90;71.00
44111;DHT22;29774;52.664;5.074;2024-01-15T11:41:58;7.80;71.10
44111;DHT22;29774;52.664;5.074;2024-01-15T11:44:24;7.70;70.60
44111;DHT22;29774;52.664;5.074;2024-01-15T11:47:05;7.30;69.60
44111;DHT22;29774;52.664;5.074;2024-01-15T11:52:12;6.90;71.40
44111;DHT22;29774;52.664;5.074;2024-01-15T11:54:48;6.50;71.20
44111;DHT22;29774;52.664;5.074;2024-01-15T11:57:25;6.50;72.20
44111;DHT22;29774;52.664;5.074;2024-01-15T11:59:53;6.60;73.10
44111;DHT22;29774;52.664;5.074;2024-01-15T12:02:18;6.40;72.50
44111;DHT22;29774;52.664;5.074;2024-01-15T12:04:44;6.60;73.30
44111;DHT22;29774;52.664;5.074;2024-01-15T12:07:10;6.50;72.40
44111;DHT22;29774;52.664;5.074;2024-01-15T12:09:35;6.20;72.20
44111;DHT22;29774;52.664;5.074;2024-01-15T12:12:09;5.90;72.40
44111;DHT22;29774;52.664;5.074;2024-01-15T12:14:39;6.10;73.90
44111;DHT22;29774;52.664;5.074;2024-01-15T12:17:04;6.60;74.90
44111;DHT22;29774;52.664;5.074;2024-01-15T12:19:30;6.60;73.60
44111;DHT22;29774;52.664;5.074;2024-01-15T12:21:56;6.40;73.60
44111;DHT22;29774;52.664;5.074;2024-01-15T12:24:22;6.20;73.00
44111;DHT22;29774;52.664;5.074;2024-01-15T12:26:47;6.30;74.70
44111;DHT22;29774;52.664;5.074;2024-01-15T12:29:13;6.50;74.10
44111;DHT22;29774;52.664;5.074;2024-01-15T12:31:39;6.30;73.90
44111;DHT22;29774;52.664;5.074;2024-01-15T12:34:04;6.30;74.00
44111;DHT22;29774;52.664;5.074;2024-01-15T12:36:31;6.10;73.30
44111;DHT22;29774;52.664;5.074;2024-01-15T12:39:00;5.70;73.20
44111;DHT22;29774;52.664;5.074;2024-01-15T12:41:25;5.80;73.90
44111;DHT22;29774;52.664;5.074;2024-01-15T12:43:51;5.50;74.30
44111;DHT22;29774;52.664;5.074;2024-01-15T12:46:17;5.50;74.90
44111;DHT22;29774;52.664;5.074;2024-01-15T12:48:44;5.50;75.40
44111;DHT22;29774;52.664;5.074;2024-01-15T12:51:10;5.40;76.10
44111;DHT22;29774;52.664;5.074;2024-01-15T12:53:35;5.80;76.60
44111;DHT22;29774;52.664;5.074;2024-01-15T12:56:01;5.80;76.00
44111;DHT22;29774;52.664;5.074;2024-01-15T12:58:27;5.70;75.50
44111;DHT22;29774;52.664;5.074;2024-01-15T13:00:52;5.90;76.30
44111;DHT22;29774;52.664;5.074;2024-01-15T13:03:18;6.10;76.10
44111;DHT22;29774;52.664;5.074;2024-01-15T13:05:44;6.10;75.70
44111;DHT22;29774;52.664;5.074;2024-01-15T13:08:10;6.20;75.80
44111;DHT22;29774;52.664;5.074;2024-01-15T13:10:36;6.60;76.20
44111;DHT22;29774;52.664;5.074;2024-01-15T13:13:01;6.80;75.50
44111;DHT22;29774;52.664;5.074;2024-01-15T13:15:27;7.00;74.70
44111;DHT22;29774;52.664;5.074;2024-01-15T13:17:53;7.30;73.90
44111;DHT22;29774;52.664;5.074;2024-01-15T13:20:18;7.20;71.90
44111;DHT22;29774;52.664;5.074;2024-01-15T13:22:44;6.70;71.50
44111;DHT22;29774;52.664;5.074;2024-01-15T13:25:10;6.60;71.90
44111;DHT22;29774;52.664;5.074;2024-01-15T13:27:36;6.70;72.90
44111;DHT22;29774;52.664;5.074;2024-01-15T13:30:03;6.60;73.00
44111;DHT22;29774;52.664;5.074;2024-01-15T13:32:29;6.80;73.70
44111;DHT22;29774;52.664;5.074;2024-01-15T13:34:56;6.90;73.30
44111;DHT22;29774;52.664;5.074;2024-01-15T13:37:22;6.70;72.80
44111;DHT22;29774;52.664;5.074;2024-01-15T13:39:50;6.70;72.70
44111;DHT22;29774;52.664;5.074;2024-01-15T13:42:17;6.70;73.30
44111;DHT22;29774;52.664;5.074;2024-01-15T13:44:43;6.70;72.10
44111;DHT22;29774;52.664;5.074;2024-01-15T13:47:10;6.60;72.40
44111;DHT22;29774;52.664;5.074;2024-01-15T13:49:36;6.90;74.30
44111;DHT22;29774;52.664;5.074;2024-01-15T13:52:02;7.20;73.90
44111;DHT22;29774;52.664;5.074;2024-01-15T13:54:29;7.60;72.90
44111;DHT22;29774;52.664;5.074;2024-01-15T13:56:55;7.50;72.30
44111;DHT22;29774;52.664;5.074;2024-01-15T13:59:21;7.80;71.70
44111;DHT22;29774;52.664;5.074;2024-01-15T14:01:47;7.80;71.10
44111;DHT22;29774;52.664;5.074;2024-01-15T14:04:13;7.70;70.90
44111;DHT22;29774;52.664;5.074;2024-01-15T14:06:39;7.70;71.20
44111;DHT22;29774;52.664;5.074;2024-01-15T14:09:04;7.90;70.90
44111;DHT22;29774;52.664;5.074;2024-01-15T14:11:31;7.90;69.80
44111;DHT22;29774;52.664;5.074;2024-01-15T14:13:56;7.70;69.80
44111;DHT22;29774;52.664;5.074;2024-01-15T14:16:22;7.60;70.40
44111;DHT22;29774;52.664;5.074;2024-01-15T14:18:48;7.70;70.90
44111;DHT22;29774;52.664;5.074;2024-01-15T14:21:13;7.70;71.00
44111;DHT22;29774;52.664;5.074;2024-01-15T14:23:39;7.90;70.70
44111;DHT22;29774;52.664;5.074;2024-01-15T14:26:05;8.10;70.00
44111;DHT22;29774;52.664;5.074;2024-01-15T14:28:31;8.20;70.30
44111;DHT22;29774;52.664;5.074;2024-01-15T14:30:56;8.20;69.50
44111;DHT22;29774;52.664;5.074;2024-01-15T14:33:24;8.10;69.90
44111;DHT22;29774;52.664;5.074;2024-01-15T14:35:50;8.10;70.00
44111;DHT22;29774;52.664;5.074;2024-01-15T14:38:16;7.90;69.90
44111;DHT22;29774;52.664;5.074;2024-01-15T14:40:42;7.90;69.90
44111;DHT22;29774;52.664;5.074;2024-01-15T14:43:09;7.80;70.00
44111;DHT22;29774;52.664;5.074;2024-01-15T14:45:35;7.70;70.50
44111;DHT22;29774;52.664;5.074;2024-01-15T14:48:01;7.80;70.60
44111;DHT22;29774;52.664;5.074;2024-01-15T14:50:27;7.80;70.20
44111;DHT22;29774;52.664;5.074;2024-01-15T14:52:52;7.90;70.20
44111;DHT22;29774;52.664;5.074;2024-01-15T14:55:18;7.80;70.40
44111;DHT22;29774;52.664;5.074;2024-01-15T14:57:43;8.10;70.70
44111;DHT22;29774;52.664;5.074;2024-01-15T15:00:09;8.20;71.40
44111;DHT22;29774;52.664;5.074;2024-01-15T15:02:35;8.10;69.90
44111;DHT22;29774;52.664;5.074;2024-01-15T15:05:02;8.10;71.00
44111;DHT22;29774;52.664;5.074;2024-01-15T15:07:28;7.90;70.80
44111;DHT22;29774;52.664;5.074;2024-01-15T15:09:53;7.90;70.80
44111;DHT22;29774;52.664;5.074;2024-01-15T15:12:19;7.80;71.00
44111;DHT22;29774;52.664;5.074;2024-01-15T15:14:45;7.90;71.00
44111;DHT22;29774;52.664;5.074;2024-01-15T15:17:10;7.70;70.80
44111;DHT22;29774;52.664;5.074;2024-01-15T15:19:37;7.40;69.90
44111;DHT22;29774;52.664;5.074;2024-01-15T15:22:05;7.50;71.60
44111;DHT22;29774;52.664;5.074;2024-01-15T15:24:31;7.40;70.80
44111;DHT22;29774;52.664;5.074;2024-01-15T15:26:56;7.50;71.20
44111;DHT22;29774;52.664;5.074;2024-01-15T15:29:22;7.50;71.70
44111;DHT22;29774;52.664;5.074;2024-01-15T15:31:50;7.70;71.40
44111;DHT22;29774;52.664;5.074;2024-01-15T15:34:15;7.60;71.20
44111;DHT22;29774;52.664;5.074;2024-01-15T15:36:41;7.70;71.30
44111;DHT22;29774;52.664;5.074;2024-01-15T15:39:07;7.60;71.20
44111;DHT22;29774;52.664;5.074;2024-01-15T15:41:33;7.50;71.30
44111;DHT22;29774;52.664;5.074;2024-01-15T15:43:58;7.60;71.40
44111;DHT22;29774;52.664;5.074;2024-01-15T15:46:24;7.40;70.10
44111;DHT22;29774;52.664;5.074;2024-01-15T15:48:49;7.00;69.90
44111;DHT22;29774;52.664;5.074;2024-01-15T15:51:15;7.20;71.70
44111;DHT22;29774;52.664;5.074;2024-01-15T15:53:41;6.80;70.40
44111;DHT22;29774;52.664;5.074;2024-01-15T15:56:06;6.70;71.10